createdAt,value
2019-02-19T00:00:02.696Z,98215.92
2019-02-19T00:02:37.526Z,98215.36
2019-02-19T00:05:08.358Z,98212.36
2019-02-19T00:07:39.712Z,98220.19
2019-02-19T00:10:09.709Z,98212.70
2019-02-19T00:12:39.532Z,98213.88
2019-02-19T00:15:09.410Z,98212.24
2019-02-19T00:17:39.252Z,98216.48
2019-02-19T00:20:09.076Z,98217.55
2019-02-19T00:22:39.231Z,98217.39
2019-02-19T00:25:09.250Z,98214.58
2019-02-19T00:27:39.147Z,98215.19
2019-02-19T00:30:09.212Z,98214.19
2019-02-19T00:32:39.156Z,98214.50
2019-02-19T00:35:09.112Z,98210.57
2019-02-19T00:37:42.275Z,98216.36
2019-02-19T00:40:12.069Z,98212.95
2019-02-19T00:42:41.896Z,98208.91
2019-02-19T00:45:16.664Z,98205.86
2019-02-19T00:47:44.616Z,98204.03
2019-02-19T00:50:15.933Z,98202.12
2019-02-19T00:52:47.594Z,98199.70
2019-02-19T00:55:17.541Z,98202.33
2019-02-19T00:57:48.457Z,98205.89
2019-02-19T01:00:18.219Z,98208.42
2019-02-19T01:02:50.323Z,98195.14
2019-02-19T01:05:21.184Z,98200.37
2019-02-19T01:07:54.519Z,98197.75
2019-02-19T01:10:24.889Z,98193.30
2019-02-19T01:12:54.704Z,98194.24
2019-02-19T01:15:25.755Z,98186.01
2019-02-19T01:17:55.670Z,98186.01
2019-02-19T01:20:27.116Z,98193.33
2019-02-19T01:22:59.325Z,98186.31
2019-02-19T01:25:29.192Z,98178.20
2019-02-19T01:28:02.389Z,98178.20
2019-02-19T01:30:32.558Z,98178.87
2019-02-19T01:33:02.422Z,98168.05
2019-02-19T01:35:32.828Z,98168.05
2019-02-19T01:38:02.670Z,98168.19
2019-02-19T01:40:32.476Z,98169.02
2019-02-19T01:43:02.250Z,98159.84
2019-02-19T01:45:38.400Z,98163.82
2019-02-19T01:48:09.797Z,98162.28
2019-02-19T01:50:39.709Z,98162.28
2019-02-19T01:53:11.086Z,98160.05
2019-02-19T01:55:41.079Z,98153.27
2019-02-19T01:58:14.774Z,98153.27
2019-02-19T02:00:44.908Z,98150.88
2019-02-19T02:03:26.281Z,98150.88
2019-02-19T02:05:57.011Z,98152.44
2019-02-19T02:08:27.653Z,98142.19
2019-02-19T02:11:02.025Z,98142.49
2019-02-19T02:13:34.305Z,98142.49
2019-02-19T02:16:04.124Z,98144.96
2019-02-19T02:18:37.214Z,98145.28
2019-02-19T02:21:09.349Z,98142.58
2019-02-19T02:23:43.966Z,98136.37
2019-02-19T02:26:16.298Z,98133.64
2019-02-19T02:28:47.635Z,98130.50
2019-02-19T02:31:17.483Z,98124.50
2019-02-19T02:33:47.259Z,98126.69
2019-02-19T02:36:17.331Z,98123.69
2019-02-19T02:38:49.171Z,98112.34
2019-02-19T02:41:18.968Z,98122.67
2019-02-19T02:43:50.233Z,98105.39
2019-02-19T02:46:20.068Z,98105.39
2019-02-19T02:48:49.894Z,98106.38
2019-02-19T02:51:25.586Z,98106.38
2019-02-19T02:54:02.823Z,98104.73
2019-02-19T02:56:42.969Z,98095.66
2019-02-19T02:59:15.431Z,98095.66
2019-02-19T03:01:46.659Z,98095.55
2019-02-19T03:04:22.382Z,98102.02
2019-02-19T03:07:06.910Z,98100.73
2019-02-19T03:09:41.109Z,98105.14
2019-02-19T03:12:18.882Z,98105.14
2019-02-19T03:14:48.713Z,98107.28
2019-02-19T03:17:27.905Z,98111.62
2019-02-19T03:19:57.872Z,98104.23
2019-02-19T03:22:35.753Z,98113.05
2019-02-19T03:25:06.141Z,98107.84
2019-02-19T03:27:37.463Z,98111.52
2019-02-19T03:30:10.301Z,98115.52
2019-02-19T03:32:55.155Z,98109.58
2019-02-19T03:35:26.444Z,98116.18
2019-02-19T03:38:04.339Z,98113.97
2019-02-19T03:40:37.452Z,98119.48
2019-02-19T03:43:13.527Z,98107.95
2019-02-19T03:45:43.997Z,98111.19
2019-02-19T03:48:17.527Z,98107.67
2019-02-19T03:50:49.075Z,98100.22
2019-02-19T03:53:23.797Z,98089.23
2019-02-19T03:56:05.903Z,98105.70
2019-02-19T03:58:40.431Z,98099.17
2019-02-19T04:01:11.215Z,98102.48
2019-02-19T04:03:47.661Z,98109.67
2019-02-19T04:06:28.759Z,98111.34
2019-02-19T04:09:04.766Z,98103.11
2019-02-19T04:11:40.959Z,98112.59
2019-02-19T04:14:12.052Z,98108.91
2019-02-19T04:16:44.489Z,98106.73
2019-02-19T04:19:14.203Z,98102.10
2019-02-19T04:21:49.016Z,98106.83
2019-02-19T04:24:21.248Z,98106.83
2019-02-19T04:26:58.966Z,98105.91
2019-02-19T04:29:31.998Z,98101.86
2019-02-19T04:32:08.085Z,98100.77
2019-02-19T04:34:41.249Z,98099.02
2019-02-19T04:37:19.774Z,98097.67
2019-02-19T04:39:53.228Z,98091.09
2019-02-19T04:42:23.089Z,98099.02
2019-02-19T04:44:54.494Z,98100.34
2019-02-19T04:47:25.942Z,98086.98
2019-02-19T04:50:03.466Z,98092.95
2019-02-19T04:52:37.704Z,98086.25
2019-02-19T04:55:10.245Z,98088.41
2019-02-19T04:57:41.006Z,98090.78
2019-02-19T05:00:14.762Z,98085.42
2019-02-19T05:02:48.845Z,98091.91
2019-02-19T05:05:20.320Z,98092.11
2019-02-19T05:07:50.185Z,98085.03
2019-02-19T05:10:24.376Z,98080.05
2019-02-19T05:13:02.253Z,98091.59
2019-02-19T05:15:37.062Z,98095.22
2019-02-19T05:18:11.730Z,98094.89
2019-02-19T05:20:41.496Z,98093.66
2019-02-19T05:23:11.853Z,98097.26
2019-02-19T05:25:41.879Z,98095.63
2019-02-19T05:28:17.525Z,98095.42
2019-02-19T05:30:47.351Z,98098.19
2019-02-19T05:33:23.799Z,98091.59
2019-02-19T05:35:54.626Z,98094.48
2019-02-19T05:38:24.414Z,98093.02
2019-02-19T05:40:58.907Z,98097.97
2019-02-19T05:43:32.108Z,98096.75
2019-02-19T05:46:01.988Z,98104.99
2019-02-19T05:48:32.590Z,98107.05
2019-02-19T05:51:03.050Z,98102.70
2019-02-19T05:53:32.860Z,98104.36
2019-02-19T05:56:02.681Z,98105.41
2019-02-19T05:58:32.439Z,98103.83
2019-02-19T06:01:02.296Z,98106.43
2019-02-19T06:03:36.751Z,98112.28
2019-02-19T06:06:08.486Z,98111.76
2019-02-19T06:08:40.232Z,98107.97
2019-02-19T06:11:10.970Z,98114.86
2019-02-19T06:13:41.611Z,98117.55
2019-02-19T06:16:15.378Z,98120.97
2019-02-19T06:18:50.649Z,98123.73
2019-02-19T06:21:20.573Z,98123.31
2019-02-19T06:23:52.601Z,98129.79
2019-02-19T06:26:22.013Z,98126.60
2019-02-19T06:28:51.992Z,98118.37
2019-02-19T06:31:21.871Z,98117.75
2019-02-19T06:33:54.154Z,98119.19
2019-02-19T06:36:23.922Z,98124.02
2019-02-19T06:38:56.426Z,98131.67
2019-02-19T06:41:26.184Z,98127.95
2019-02-19T06:44:03.951Z,98132.59
2019-02-19T06:46:42.036Z,98140.83
2019-02-19T06:49:15.139Z,98144.75
2019-02-19T06:51:56.997Z,98146.60
2019-02-19T06:54:31.751Z,98157.19
2019-02-19T06:57:13.555Z,98147.02
2019-02-19T07:00:00.304Z,98147.02
2019-02-19T07:02:41.842Z,98152.16
2019-02-19T07:05:18.801Z,98155.14
2019-02-19T07:08:02.049Z,98163.27
2019-02-19T07:13:48.680Z,98172.54
2019-02-19T07:16:49.854Z,98175.42
2019-02-19T07:19:37.086Z,98182.66
2019-02-19T07:22:35.953Z,98180.89
2019-02-19T07:25:14.329Z,98178.63
2019-02-19T07:27:57.085Z,98191.81
2019-02-19T07:30:32.048Z,98197.38
2019-02-19T07:33:11.990Z,98195.72
2019-02-19T07:36:16.362Z,98200.69
2019-02-19T07:38:59.285Z,98199.75
2019-02-19T07:41:39.217Z,98198.30
2019-02-19T07:44:30.046Z,98192.92
2019-02-19T07:47:27.059Z,98198.20
2019-02-19T07:50:21.641Z,98192.84
2019-02-19T07:53:03.753Z,98201.92
2019-02-19T07:55:43.303Z,98196.34
2019-02-19T07:58:17.028Z,98200.88
2019-02-19T08:00:52.846Z,98204.77
2019-02-19T08:03:22.756Z,98200.45
2019-02-19T08:06:00.232Z,98205.39
2019-02-19T08:08:41.044Z,98202.73
2019-02-19T08:11:15.098Z,98198.39
2019-02-19T08:13:48.769Z,98206.86
2019-02-19T08:16:23.830Z,98214.38
2019-02-19T08:18:53.880Z,98212.93
2019-02-19T08:21:29.022Z,98215.81
2019-02-19T08:24:05.088Z,98214.80
2019-02-19T08:26:46.617Z,98214.26
2019-02-19T08:29:29.751Z,98216.34
2019-02-19T08:32:19.741Z,98213.03
2019-02-19T08:34:53.493Z,98211.80
2019-02-19T08:37:32.295Z,98207.37
2019-02-19T08:40:05.037Z,98210.05
2019-02-19T08:42:40.667Z,98211.69
2019-02-19T08:45:15.002Z,98217.87
2019-02-19T08:47:48.395Z,98215.81
2019-02-19T08:50:25.336Z,98221.90
2019-02-19T08:52:57.833Z,98224.04
2019-02-19T08:55:36.212Z,98222.92
2019-02-19T08:58:08.878Z,98222.91
2019-02-19T09:00:41.723Z,98223.58
2019-02-19T09:03:25.740Z,98223.98
2019-02-19T09:06:04.317Z,98230.88
2019-02-19T09:08:40.734Z,98228.92
2019-02-19T09:11:16.709Z,98229.43
2019-02-19T09:13:56.996Z,98246.73
2019-02-19T09:16:37.247Z,98238.56
2019-02-19T09:19:12.720Z,98244.66
2019-02-19T09:21:54.223Z,98241.25
2019-02-19T09:24:26.407Z,98243.86
2019-02-19T09:27:00.971Z,98241.70
2019-02-19T09:29:36.505Z,98242.18
2019-02-19T09:32:12.599Z,98242.03
2019-02-19T09:34:46.491Z,98248.11
2019-02-19T09:37:22.709Z,98244.34
2019-02-19T09:39:58.047Z,98251.94
2019-02-19T09:42:39.419Z,98252.19
2019-02-19T09:45:12.888Z,98247.78
2019-02-19T09:47:44.673Z,98252.50
2019-02-19T09:50:16.632Z,98247.74
2019-02-19T09:52:59.783Z,98247.72
2019-02-19T09:55:28.423Z,98247.23
2019-02-19T09:58:04.913Z,98244.42
2019-02-19T10:00:38.722Z,98247.56
2019-02-19T10:03:19.830Z,98256.56
2019-02-19T10:06:02.079Z,98246.91
2019-02-19T10:08:39.752Z,98250.48
2019-02-19T10:11:11.936Z,98249.82
2019-02-19T10:13:48.862Z,98252.30
2019-02-19T10:16:20.641Z,98252.00
2019-02-19T10:18:54.471Z,98255.90
2019-02-19T10:21:26.735Z,98251.90
2019-02-19T10:24:02.543Z,98253.64
2019-02-19T10:26:36.235Z,98263.69
2019-02-19T10:29:07.298Z,98258.46
2019-02-19T10:31:43.927Z,98260.57
2019-02-19T10:34:15.111Z,98253.31
2019-02-19T10:36:54.197Z,98258.54
2019-02-19T10:39:24.878Z,98254.19
2019-02-19T10:41:57.312Z,98261.59
2019-02-19T10:44:28.497Z,98256.69
2019-02-19T10:47:03.154Z,98253.00
2019-02-19T10:49:33.962Z,98250.64
2019-02-19T10:52:14.622Z,98253.59
2019-02-19T10:54:46.396Z,98255.31
2019-02-19T10:57:24.855Z,98254.73
2019-02-19T10:59:56.667Z,98246.64
2019-02-19T11:02:33.448Z,98245.38
2019-02-19T11:05:09.651Z,98243.48
2019-02-19T11:07:40.692Z,98239.06
2019-02-19T11:10:13.906Z,98232.05
2019-02-19T11:12:44.582Z,98231.14
2019-02-19T11:15:17.587Z,98223.74
2019-02-19T11:17:47.682Z,98226.53
2019-02-19T11:20:19.751Z,98221.14
2019-02-19T11:22:50.377Z,98219.18
2019-02-19T11:25:20.140Z,98218.67
2019-02-19T11:27:57.071Z,98218.78
2019-02-19T11:30:27.092Z,98216.06
2019-02-19T11:32:56.952Z,98219.17
2019-02-19T11:35:30.859Z,98220.17
2019-02-19T11:38:01.254Z,98209.63
2019-02-19T11:40:31.879Z,98212.16
2019-02-19T11:43:01.795Z,98204.66
2019-02-19T11:45:31.806Z,98199.55
2019-02-19T11:48:03.877Z,98201.08
2019-02-19T11:50:36.253Z,98191.42
2019-02-19T11:53:19.141Z,98188.58
2019-02-19T11:55:50.849Z,98183.14
2019-02-19T11:58:20.757Z,98172.55
2019-02-19T12:00:59.127Z,98171.60
2019-02-19T12:03:29.181Z,98167.70
2019-02-19T12:06:08.659Z,98169.00
2019-02-19T12:08:41.580Z,98165.03
2019-02-19T12:11:34.140Z,98155.95
2019-02-19T12:14:16.960Z,98155.31
2019-02-19T12:16:57.588Z,98153.38
2019-02-19T12:19:36.876Z,98155.77
2019-02-19T12:22:19.378Z,98145.82
2019-02-19T12:24:56.937Z,98146.52
2019-02-19T12:27:36.360Z,98147.25
2019-02-19T12:30:21.968Z,98137.03
2019-02-19T12:32:58.673Z,98127.55
2019-02-19T12:35:42.952Z,98124.02
2019-02-19T12:38:26.015Z,98122.96
2019-02-19T12:41:10.912Z,98116.75
2019-02-19T12:43:51.064Z,98123.84
2019-02-19T12:46:32.359Z,98123.03
2019-02-19T12:49:11.012Z,98122.61
2019-02-19T12:51:55.628Z,98121.32
2019-02-19T12:54:32.677Z,98108.89
2019-02-19T12:57:17.141Z,98113.89
2019-02-19T12:59:56.790Z,98106.28
2019-02-19T13:02:35.441Z,98097.77
2019-02-19T13:05:17.800Z,98103.80
2019-02-19T13:08:00.306Z,98096.41
2019-02-19T13:10:45.015Z,98098.55
2019-02-19T13:13:18.369Z,98087.71
2019-02-19T13:15:57.680Z,98094.91
2019-02-19T13:18:38.658Z,98092.39
2019-02-19T13:21:18.602Z,98088.72
2019-02-19T13:24:02.685Z,98084.43
2019-02-19T13:26:44.535Z,98079.55
2019-02-19T13:29:17.485Z,98077.56
2019-02-19T13:32:03.247Z,98077.83
2019-02-19T13:34:50.891Z,98076.18
2019-02-19T13:37:32.527Z,98077.77
2019-02-19T13:40:25.328Z,98080.38
2019-02-19T13:43:05.414Z,98083.67
2019-02-19T13:45:41.360Z,98078.23
2019-02-19T13:48:17.325Z,98075.41
2019-02-19T13:50:56.752Z,98072.98
2019-02-19T13:53:47.396Z,98078.52
2019-02-19T13:56:23.551Z,98078.23
2019-02-19T13:58:57.561Z,98071.77
2019-02-19T14:01:41.877Z,98077.40
2019-02-19T14:04:25.567Z,98075.89
2019-02-19T14:07:11.150Z,98077.95
2019-02-19T14:09:48.221Z,98075.91
2019-02-19T14:12:26.471Z,98071.59
2019-02-19T14:15:05.394Z,98072.20
2019-02-19T14:17:36.768Z,98072.44
2019-02-19T14:20:11.703Z,98069.10
2019-02-19T14:22:52.030Z,98074.48
2019-02-19T14:25:42.590Z,98067.84
2019-02-19T14:28:30.716Z,98067.09
2019-02-19T14:31:11.531Z,98068.83
2019-02-19T14:33:57.110Z,98063.34
2019-02-19T14:36:59.554Z,98058.52
2019-02-19T14:42:48.029Z,98063.00
2019-02-19T14:45:25.422Z,98062.16
2019-02-19T14:48:09.413Z,98059.86
2019-02-19T14:50:48.194Z,98059.45
2019-02-19T14:53:36.692Z,98061.41
2019-02-19T14:56:14.656Z,98058.69
2019-02-19T14:58:58.007Z,98055.41
2019-02-19T15:01:41.932Z,98056.16
2019-02-19T15:04:32.923Z,98057.41
2019-02-19T15:07:20.612Z,98054.70
2019-02-19T15:09:53.782Z,98053.55
2019-02-19T15:12:37.233Z,98049.89
2019-02-19T15:15:17.877Z,98058.37
2019-02-19T15:17:56.048Z,98053.36
2019-02-19T15:20:47.607Z,98049.84
2019-02-19T15:23:25.654Z,98046.55
2019-02-19T15:26:01.230Z,98044.38
2019-02-19T15:28:41.818Z,98051.79
2019-02-19T15:31:33.357Z,98046.40
2019-02-19T15:34:11.070Z,98051.83
2019-02-19T15:37:11.585Z,98047.13
2019-02-19T15:39:59.101Z,98047.16
2019-02-19T15:42:40.319Z,98049.80
2019-02-19T15:45:32.119Z,98052.95
2019-02-19T15:48:18.005Z,98050.78
2019-02-19T15:50:56.603Z,98044.04
2019-02-19T15:53:45.438Z,98040.95
2019-02-19T15:56:28.648Z,98043.49
2019-02-19T15:59:21.295Z,98040.85
2019-02-19T16:01:54.861Z,98035.10
2019-02-19T16:04:41.728Z,98035.27
2019-02-19T16:07:22.641Z,98038.76
2019-02-19T16:09:57.503Z,98029.20
2019-02-19T16:12:36.685Z,98029.11
2019-02-19T16:15:17.593Z,98030.17
2019-02-19T16:18:13.250Z,98032.48
2019-02-19T16:20:52.270Z,98034.70
2019-02-19T16:23:31.660Z,98035.97
2019-02-19T16:26:22.000Z,98029.01
2019-02-19T16:28:59.766Z,98030.46
2019-02-19T16:31:34.637Z,98027.03
2019-02-19T16:34:14.422Z,98024.28
2019-02-19T16:36:51.206Z,98028.18
2019-02-19T16:39:29.090Z,98032.41
2019-02-19T16:42:25.601Z,98033.98
2019-02-19T16:45:07.217Z,98024.98
2019-02-19T16:48:03.473Z,98025.50
2019-02-19T16:50:36.346Z,98024.16
2019-02-19T16:53:18.545Z,98030.93
2019-02-19T16:55:52.912Z,98036.45
2019-02-19T16:58:27.757Z,98040.27
2019-02-19T17:01:10.338Z,98032.62
2019-02-19T17:03:47.767Z,98032.60
2019-02-19T17:06:37.864Z,98037.56
2019-02-19T17:09:19.303Z,98040.53
2019-02-19T17:12:00.417Z,98043.56
2019-02-19T17:14:41.723Z,98052.45
2019-02-19T17:17:34.405Z,98048.27
2019-02-19T17:20:28.963Z,98050.50
2019-02-19T17:23:06.147Z,98056.22
2019-02-19T17:25:47.172Z,98059.81
2019-02-19T17:28:29.010Z,98063.04
2019-02-19T17:31:04.816Z,98065.89
2019-02-19T17:33:56.747Z,98061.59
2019-02-19T17:36:37.194Z,98063.44
2019-02-19T17:39:26.633Z,98067.17
2019-02-19T17:42:02.183Z,98065.59
2019-02-19T17:44:34.712Z,98067.63
2019-02-19T17:47:09.999Z,98069.42
2019-02-19T17:49:47.564Z,98063.27
2019-02-19T17:52:40.758Z,98067.26
2019-02-19T17:55:30.085Z,98063.77
2019-02-19T17:58:07.526Z,98067.80
2019-02-19T18:00:56.862Z,98068.04
2019-02-19T18:03:36.089Z,98075.27
2019-02-19T18:06:25.607Z,98073.98
2019-02-19T18:09:18.117Z,98073.48
2019-02-19T18:11:55.060Z,98071.95
2019-02-19T18:14:36.344Z,98075.88
2019-02-19T18:17:19.886Z,98079.81
2019-02-19T18:19:51.926Z,98083.47
2019-02-19T18:22:25.223Z,98083.48
2019-02-19T18:24:56.823Z,98083.69
2019-02-19T18:27:33.430Z,98079.47
2019-02-19T18:30:07.146Z,98082.03
2019-02-19T18:32:37.255Z,98078.84
2019-02-19T18:35:09.806Z,98090.05
2019-02-19T18:37:48.861Z,98092.94
2019-02-19T18:40:21.530Z,98092.23
2019-02-19T18:42:55.655Z,98096.95
2019-02-19T18:45:34.716Z,98103.97
2019-02-19T18:48:08.016Z,98110.45
2019-02-19T18:50:40.659Z,98103.77
2019-02-19T18:53:11.179Z,98113.43
2019-02-19T18:55:41.703Z,98105.60
2019-02-19T18:58:11.452Z,98107.26
2019-02-19T19:00:41.667Z,98106.45
2019-02-19T19:03:14.893Z,98105.50
2019-02-19T19:05:45.654Z,98104.47
2019-02-19T19:08:15.706Z,98100.84
2019-02-19T19:10:48.763Z,98110.02
2019-02-19T19:13:19.316Z,98103.14
2019-02-19T19:15:51.991Z,98104.38
2019-02-19T19:18:22.953Z,98099.66
2019-02-19T19:20:52.828Z,98108.38
2019-02-19T19:23:26.943Z,98095.41
2019-02-19T19:25:57.061Z,98104.89
2019-02-19T19:28:26.862Z,98103.14
2019-02-19T19:31:00.346Z,98102.40
2019-02-19T19:33:32.981Z,98100.02
2019-02-19T19:36:04.459Z,98102.98
2019-02-19T19:38:35.109Z,98103.59
2019-02-19T19:41:05.549Z,98103.47
2019-02-19T19:43:43.206Z,98102.19
2019-02-19T19:46:17.149Z,98098.81
2019-02-19T19:48:48.523Z,98099.02
2019-02-19T19:51:18.431Z,98111.34
2019-02-19T19:53:50.584Z,98120.16
2019-02-19T19:56:23.279Z,98112.39
2019-02-19T19:58:54.070Z,98116.41
2019-02-19T20:01:24.466Z,98120.41
2019-02-19T20:03:58.619Z,98120.48
2019-02-19T20:06:29.396Z,98121.13
2019-02-19T20:08:59.882Z,98117.73
2019-02-19T20:11:32.035Z,98119.86
2019-02-19T20:14:04.680Z,98117.56
2019-02-19T20:16:41.620Z,98122.86
2019-02-19T20:19:16.155Z,98124.84
2019-02-19T20:24:32.503Z,98133.54
2019-02-19T20:27:08.614Z,98128.47
2019-02-19T20:29:41.419Z,98113.38
2019-02-19T20:32:17.208Z,98113.38
2019-02-19T20:34:51.827Z,98127.91
2019-02-19T20:37:31.063Z,98127.77
2019-02-19T20:40:03.452Z,98127.05
2019-02-19T20:42:37.934Z,98129.11
2019-02-19T20:45:16.394Z,98132.48
2019-02-19T20:47:51.269Z,98129.52
2019-02-19T20:50:28.789Z,98134.22
2019-02-19T20:53:03.777Z,98131.69
2019-02-19T20:55:38.144Z,98133.37
2019-02-19T20:58:08.913Z,98132.14
2019-02-19T21:00:40.576Z,98131.94
2019-02-19T21:03:27.770Z,98132.44
2019-02-19T21:06:03.611Z,98135.69
2019-02-19T21:08:38.068Z,98124.31
2019-02-19T21:11:10.796Z,98126.59
2019-02-19T21:13:45.841Z,98125.95
2019-02-19T21:16:19.624Z,98127.88
2019-02-19T21:18:52.066Z,98134.56
2019-02-19T21:21:29.898Z,98132.09
2019-02-19T21:24:06.260Z,98129.53
2019-02-19T21:26:40.758Z,98131.59
2019-02-19T21:29:18.260Z,98128.14
2019-02-19T21:31:53.391Z,98125.97
2019-02-19T21:34:25.044Z,98122.23
2019-02-19T21:37:01.422Z,98116.30
2019-02-19T21:39:41.452Z,98118.67
2019-02-19T21:42:25.510Z,98110.61
2019-02-19T21:45:03.206Z,98115.94
2019-02-19T21:48:01.321Z,98107.67
2019-02-19T21:50:38.941Z,98108.83
2019-02-19T21:53:23.753Z,98103.51
2019-02-19T21:55:58.528Z,98107.46
2019-02-19T21:58:36.475Z,98110.75
2019-02-19T22:01:12.790Z,98118.02
2019-02-19T22:03:51.018Z,98112.53
2019-02-19T22:06:33.004Z,98112.53
2019-02-19T22:09:13.407Z,98122.69
2019-02-19T22:11:48.123Z,98122.69
2019-02-19T22:14:22.909Z,98119.06
2019-02-19T22:17:04.479Z,98123.88
2019-02-19T22:19:42.606Z,98123.88
2019-02-19T22:22:17.437Z,98117.67
2019-02-19T22:24:50.685Z,98120.55
2019-02-19T22:27:26.780Z,98111.42
2019-02-19T22:30:09.140Z,98113.28
2019-02-19T22:32:56.708Z,98112.75
2019-02-19T22:35:34.342Z,98110.44
2019-02-19T22:38:05.629Z,98110.44
2019-02-19T22:40:41.590Z,98118.84
2019-02-19T22:43:14.232Z,98114.30
2019-02-19T22:45:49.448Z,98118.28
2019-02-19T22:48:20.241Z,98118.49
2019-02-19T22:50:52.866Z,98123.69
2019-02-19T22:53:41.810Z,98123.69
2019-02-19T22:56:15.996Z,98123.61
2019-02-19T22:58:48.432Z,98123.61
2019-02-19T23:01:24.298Z,98129.81
2019-02-19T23:03:59.577Z,98129.42
2019-02-19T23:06:30.092Z,98127.86
2019-02-19T23:09:03.096Z,98131.13
2019-02-19T23:11:34.657Z,98134.02
2019-02-19T23:14:13.194Z,98134.02
2019-02-19T23:16:43.345Z,98139.66
2019-02-19T23:19:13.344Z,98131.60
2019-02-19T23:21:49.488Z,98131.60
2019-02-19T23:24:20.541Z,98134.06
2019-02-19T23:26:53.136Z,98128.66
2019-02-19T23:29:23.403Z,98130.45
2019-02-19T23:31:53.729Z,98130.45
2019-02-19T23:34:26.049Z,98136.42
2019-02-19T23:37:10.824Z,98132.91
2019-02-19T23:39:43.598Z,98141.65
2019-02-19T23:42:18.650Z,98144.14
2019-02-19T23:44:51.664Z,98147.66
2019-02-19T23:47:27.011Z,98146.61
2019-02-19T23:50:00.420Z,98146.70
2019-02-19T23:52:37.740Z,98144.88
2019-02-19T23:55:13.367Z,98144.24
2019-02-19T23:57:52.011Z,98148.23
